Hauptseite
METAR-TAF:

METAR-TAF

Flughäfen :

Flughafen Châlons Vatry

Châlons-en-Champagne, Frankreich

Breite: 48-46-34N, Länge: 004-11-04E, Höhe: 179 m

Beobachtung

Neuester Wetterbericht von vor 15 Minuten, um 19:00 UTC
Wind 5 kt aus Nordost
Temperatur 28°C
Luftfeuchtigkeit 35%
Luftdruck 1018 hPa
Sichtweite 10 km oder mehr
keine Wolken unter 1500 m und keine Kumulonimbus oder Gewitterwolken

METAR: LFOK 061900Z AUTO 04005KT CAVOK 28/11 Q1018 NOSIG

Zeit: 21:15 (19:15 UTC)

Prognose

Neuester Wetterbericht von vor 2 Stunden und 15 Minuten, um 17:00 UTC
Gültige Prognose vom 06 um 18 UTC bis 07 um 18 UTC
Wind 7 kt aus Ost
Sichtweite 10 km oder mehr
keine Wolken unter 1500 m und keine Kumulonimbus oder Gewitterwolken

TAF: LFOK 061700Z 0618/0718 10007KT CAVOK

Wetterbeobachtungen und Prognosen von mehr als 4000 Flughäfen (METAR und TAF Bericht).

Die verfügbaren Stationen werden durch gelbe und rote Markierungen auf der Karte dargestellt.

Führen Sie die Maus auf sie, um den Namen der Station zu sehen.

Darauf klicken, um die Beobachtung von Wetterbeobachtungen und Prognosen zu sehen.

Um die Karte zu ändern : klicken Sie auf den grünen Tasten mit einem schwarzen Kreuz Zum Vergrößern, auf den grünen Button mit einem Gedankenstrich zu verkleinern, oder auf die grünen Pfeile für benachbarte Karten.


METAR-TAF: